createdAt,value
2018-04-17T00:00:56.186Z,13.27
2018-04-17T00:04:19.178Z,13.33
2018-04-17T00:07:42.169Z,13.39
2018-04-17T00:11:05.090Z,13.16
2018-04-17T00:14:28.074Z,12.92
2018-04-17T00:17:51.032Z,12.78
2018-04-17T00:21:14.705Z,12.69
2018-04-17T00:24:37.641Z,12.83
2018-04-17T00:28:00.571Z,12.88
2018-04-17T00:31:23.552Z,12.67
2018-04-17T00:34:46.612Z,12.73
2018-04-17T00:38:09.539Z,12.77
2018-04-17T00:41:32.674Z,12.60
2018-04-17T00:44:55.595Z,12.50
2018-04-17T00:48:18.568Z,12.10
2018-04-17T00:51:41.544Z,11.95
2018-04-17T00:55:05.217Z,11.82
2018-04-17T00:58:28.171Z,11.88
2018-04-17T01:01:51.144Z,11.81
2018-04-17T01:05:14.065Z,11.68
2018-04-17T01:08:36.973Z,11.71
2018-04-17T01:11:59.905Z,11.74
2018-04-17T01:15:22.854Z,11.68
2018-04-17T01:18:46.597Z,11.35
2018-04-17T01:22:09.531Z,11.31
2018-04-17T01:25:32.460Z,11.25
2018-04-17T01:28:55.385Z,11.28
2018-04-17T01:32:18.305Z,11.33
2018-04-17T01:35:41.213Z,11.30
2018-04-17T01:39:04.108Z,11.13
2018-04-17T01:42:27.797Z,11.26
2018-04-17T01:45:50.706Z,11.63
2018-04-17T01:49:13.645Z,11.76
2018-04-17T01:52:36.639Z,11.46
2018-04-17T01:55:59.553Z,11.25
2018-04-17T01:59:22.457Z,11.26
2018-04-17T02:02:45.535Z,11.21
2018-04-17T02:06:08.605Z,10.99
2018-04-17T02:09:32.502Z,10.95
2018-04-17T02:12:56.226Z,10.87
2018-04-17T02:16:19.183Z,10.82
2018-04-17T02:19:42.126Z,10.88
2018-04-17T02:23:06.543Z,11.14
2018-04-17T02:26:29.498Z,11.07
2018-04-17T02:29:53.191Z,11.26
2018-04-17T02:33:16.114Z,11.23
2018-04-17T02:36:39.040Z,11.21
2018-04-17T02:40:01.961Z,11.35
2018-04-17T02:43:24.888Z,11.35
2018-04-17T02:46:47.878Z,11.41
2018-04-17T02:50:10.856Z,11.39
2018-04-17T02:53:33.780Z,11.21
2018-04-17T02:56:56.743Z,11.24
2018-04-17T03:00:20.422Z,11.19
2018-04-17T03:03:43.487Z,10.97
2018-04-17T03:07:06.440Z,10.87
2018-04-17T03:10:30.153Z,10.94
2018-04-17T03:13:53.852Z,10.90
2018-04-17T03:17:16.773Z,10.97
2018-04-17T03:20:39.687Z,10.69
2018-04-17T03:24:02.624Z,10.91
2018-04-17T03:27:25.537Z,10.92
2018-04-17T03:30:48.480Z,10.89
2018-04-17T03:34:12.966Z,11.10
2018-04-17T03:37:35.932Z,10.97
2018-04-17T03:40:59.621Z,10.68
2018-04-17T03:44:22.540Z,10.82
2018-04-17T03:47:45.526Z,10.67
2018-04-17T03:51:09.525Z,10.93
2018-04-17T03:54:32.471Z,11.17
2018-04-17T03:57:55.383Z,11.04
2018-04-17T04:01:18.327Z,10.85
2018-04-17T04:04:42.052Z,10.79
2018-04-17T04:08:05.753Z,10.81
2018-04-17T04:11:28.738Z,10.65
2018-04-17T04:14:51.711Z,10.60
2018-04-17T04:18:26.516Z,10.66
2018-04-17T04:22:01.431Z,10.68
2018-04-17T04:25:36.769Z,10.72
2018-04-17T04:28:59.720Z,10.72
2018-04-17T04:32:23.424Z,10.62
2018-04-17T04:35:46.454Z,10.53
2018-04-17T04:39:09.413Z,10.43
2018-04-17T04:42:32.415Z,10.60
2018-04-17T04:45:56.117Z,10.59
2018-04-17T04:49:20.576Z,10.32
2018-04-17T04:52:43.632Z,10.53
2018-04-17T04:56:06.556Z,10.63
2018-04-17T04:59:29.537Z,10.35
2018-04-17T05:02:52.479Z,10.29
2018-04-17T05:06:15.457Z,10.34
2018-04-17T05:09:39.465Z,10.95
2018-04-17T05:13:02.396Z,10.36
2018-04-17T05:16:25.312Z,10.77
2018-04-17T05:19:48.325Z,11.11
2018-04-17T05:23:11.941Z,10.86
2018-04-17T05:26:34.778Z,11.34
2018-04-17T05:29:57.644Z,10.81
2018-04-17T05:33:20.486Z,11.56
2018-04-17T05:36:43.341Z,11.14
2018-04-17T05:40:06.405Z,10.85
2018-04-17T05:43:29.988Z,10.72
2018-04-17T05:46:53.890Z,11.07
2018-04-17T05:50:16.818Z,11.03
2018-04-17T05:53:39.686Z,11.09
2018-04-17T05:57:02.590Z,11.06
2018-04-17T06:00:25.448Z,11.36
2018-04-17T06:03:48.331Z,11.31
2018-04-17T06:07:13.250Z,11.40
2018-04-17T06:10:36.121Z,11.50
2018-04-17T06:13:59.025Z,12.20
2018-04-17T06:17:21.909Z,12.04
2018-04-17T06:20:45.559Z,12.29
2018-04-17T06:24:09.220Z,11.96
2018-04-17T06:27:32.125Z,12.24
2018-04-17T06:30:55.811Z,12.09
2018-04-17T06:34:18.758Z,12.10
2018-04-17T06:37:42.462Z,12.33
2018-04-17T06:41:05.316Z,12.18
2018-04-17T06:44:28.247Z,11.88
2018-04-17T06:47:51.877Z,12.11
2018-04-17T06:51:14.806Z,12.45
2018-04-17T06:54:37.738Z,12.68
2018-04-17T06:58:01.393Z,12.68
2018-04-17T07:01:25.028Z,12.42
2018-04-17T07:04:47.922Z,12.52
2018-04-17T07:08:10.853Z,12.38
2018-04-17T07:11:33.695Z,12.84
2018-04-17T07:14:56.557Z,12.66
2018-04-17T07:18:19.471Z,12.85
2018-04-17T07:21:42.338Z,13.21
2018-04-17T07:25:05.975Z,13.13
2018-04-17T07:28:28.979Z,12.68
2018-04-17T07:31:52.743Z,12.66
2018-04-17T07:35:15.601Z,12.82
2018-04-17T07:38:38.459Z,13.09
2018-04-17T07:42:01.351Z,13.08
2018-04-17T07:45:24.211Z,13.44
2018-04-17T07:48:49.928Z,13.29
2018-04-17T07:52:13.583Z,13.25
2018-04-17T07:55:37.410Z,13.33
2018-04-17T07:59:00.114Z,13.40
2018-04-17T08:02:22.957Z,13.49
2018-04-17T08:05:45.817Z,13.52
2018-04-17T08:09:08.684Z,13.38
2018-04-17T08:12:32.308Z,13.95
2018-04-17T08:15:55.150Z,13.68
2018-04-17T08:19:17.993Z,14.09
2018-04-17T08:22:40.867Z,13.98
2018-04-17T08:26:04.568Z,14.04
2018-04-17T08:29:27.428Z,14.07
2018-04-17T08:32:50.241Z,14.22
2018-04-17T08:36:13.168Z,14.49
2018-04-17T08:39:36.051Z,14.52
2018-04-17T08:42:58.913Z,14.57
2018-04-17T08:46:22.534Z,15.05
2018-04-17T08:49:45.392Z,14.91
2018-04-17T08:53:08.234Z,14.72
2018-04-17T08:56:40.572Z,15.14
2018-04-17T09:00:03.716Z,15.01
2018-04-17T09:03:26.608Z,15.25
2018-04-17T09:06:50.233Z,15.50
2018-04-17T09:10:13.113Z,15.46
2018-04-17T09:13:36.850Z,15.70
2018-04-17T09:16:59.732Z,16.25
2018-04-17T09:20:22.564Z,16.54
2018-04-17T09:23:48.208Z,16.07
2018-04-17T09:27:11.959Z,16.22
2018-04-17T09:30:34.893Z,16.58
2018-04-17T09:33:57.757Z,16.46
2018-04-17T09:37:20.762Z,16.81
2018-04-17T09:40:44.435Z,16.61
2018-04-17T09:44:07.305Z,17.07
2018-04-17T09:47:31.033Z,17.59
2018-04-17T09:50:54.202Z,17.83
2018-04-17T09:54:17.819Z,18.05
2018-04-17T09:57:40.656Z,17.75
2018-04-17T10:01:03.508Z,17.81
2018-04-17T10:04:26.373Z,18.14
2018-04-17T10:07:49.340Z,18.21
2018-04-17T10:11:12.350Z,18.10
2018-04-17T10:14:35.211Z,18.40
2018-04-17T10:17:58.487Z,18.45
2018-04-17T10:21:21.316Z,18.53
2018-04-17T10:24:44.158Z,18.68
2018-04-17T10:28:07.031Z,18.83
2018-04-17T10:31:30.044Z,19.17
2018-04-17T10:34:53.644Z,19.01
2018-04-17T10:38:16.520Z,19.07
2018-04-17T10:41:39.428Z,19.28
2018-04-17T10:45:02.329Z,19.49
2018-04-17T10:48:25.192Z,19.92
2018-04-17T10:51:48.041Z,20.16
2018-04-17T10:55:10.906Z,20.12
2018-04-17T10:58:33.822Z,20.29
2018-04-17T11:01:56.744Z,20.33
2018-04-17T11:05:19.663Z,20.57
2018-04-17T11:08:42.614Z,20.29
2018-04-17T11:12:06.225Z,20.26
2018-04-17T11:15:29.087Z,20.26
2018-04-17T11:18:51.987Z,20.67
2018-04-17T11:22:14.965Z,20.61
2018-04-17T11:25:37.850Z,20.73
2018-04-17T11:29:00.827Z,20.90
2018-04-17T11:32:24.389Z,20.95
2018-04-17T11:35:47.269Z,21.32
2018-04-17T11:39:10.167Z,21.08
2018-04-17T11:42:33.024Z,21.37
2018-04-17T11:45:56.009Z,21.91
2018-04-17T11:49:18.852Z,22.18
2018-04-17T11:52:41.749Z,22.11
2018-04-17T11:56:05.362Z,22.53
2018-04-17T11:59:28.206Z,22.33
2018-04-17T12:02:51.052Z,22.76
2018-04-17T12:06:13.931Z,22.23
2018-04-17T12:09:37.561Z,22.64
2018-04-17T12:13:00.410Z,22.25
2018-04-17T12:16:23.322Z,22.61
2018-04-17T12:19:46.615Z,22.82
2018-04-17T12:23:09.471Z,23.04
2018-04-17T12:26:32.380Z,22.98
2018-04-17T12:29:55.934Z,23.55
2018-04-17T12:33:18.861Z,23.05
2018-04-17T12:36:41.706Z,23.53
2018-04-17T12:40:04.722Z,23.18
2018-04-17T12:43:28.908Z,23.37
2018-04-17T12:46:52.841Z,23.73
2018-04-17T12:50:16.462Z,23.69
2018-04-17T12:53:39.386Z,23.55
2018-04-17T12:57:02.296Z,23.56
2018-04-17T13:00:25.211Z,24.21
2018-04-17T13:03:48.065Z,23.43
2018-04-17T13:07:10.902Z,23.36
2018-04-17T13:10:33.764Z,23.82
2018-04-17T13:13:56.675Z,23.19
2018-04-17T13:17:19.521Z,23.47
2018-04-17T13:20:42.795Z,23.68
2018-04-17T13:24:05.636Z,24.12
2018-04-17T13:27:28.511Z,22.99
2018-04-17T13:30:52.386Z,23.54
2018-04-17T13:34:15.209Z,23.26
2018-04-17T13:37:38.032Z,23.79
2018-04-17T13:41:01.662Z,23.34
2018-04-17T13:44:24.566Z,23.66
2018-04-17T13:47:47.497Z,23.68
2018-04-17T13:51:10.254Z,24.32
2018-04-17T13:54:33.253Z,24.05
2018-04-17T13:57:56.098Z,23.98
2018-04-17T14:01:19.003Z,23.94
2018-04-17T14:04:42.043Z,23.80
2018-04-17T14:08:06.386Z,24.03
2018-04-17T14:11:29.273Z,23.75
2018-04-17T14:14:52.890Z,23.13
2018-04-17T14:18:15.737Z,23.86
2018-04-17T14:21:38.580Z,24.10
2018-04-17T14:25:01.528Z,24.11
2018-04-17T14:28:24.422Z,23.79
2018-04-17T14:31:47.337Z,23.82
2018-04-17T14:35:10.222Z,24.08
2018-04-17T14:38:33.866Z,23.30
2018-04-17T14:41:57.510Z,22.88
2018-04-17T14:45:21.871Z,22.93
2018-04-17T14:48:44.853Z,23.19
2018-04-17T14:52:07.716Z,23.93
2018-04-17T14:55:30.564Z,23.60
2018-04-17T14:58:53.554Z,23.94
2018-04-17T15:02:16.498Z,24.19
2018-04-17T15:05:40.120Z,24.09
2018-04-17T15:09:03.188Z,24.65
2018-04-17T15:12:26.034Z,24.67
2018-04-17T15:15:48.981Z,24.85
2018-04-17T15:19:12.617Z,24.46
2018-04-17T15:22:35.512Z,24.40
2018-04-17T15:25:58.392Z,25.12
2018-04-17T15:29:22.805Z,24.78
2018-04-17T15:32:45.639Z,25.52
2018-04-17T15:36:09.138Z,25.59
2018-04-17T15:39:32.026Z,25.28
2018-04-17T15:42:55.024Z,24.84
2018-04-17T15:46:17.918Z,25.37
2018-04-17T15:49:50.428Z,25.33
2018-04-17T15:53:14.168Z,25.36
2018-04-17T15:56:37.027Z,25.34
2018-04-17T15:59:59.984Z,25.48
2018-04-17T16:03:23.131Z,26.00
2018-04-17T16:06:46.139Z,25.82
2018-04-17T16:10:09.088Z,25.88
2018-04-17T16:13:32.550Z,26.02
2018-04-17T16:16:56.453Z,25.82
2018-04-17T16:20:20.115Z,25.10
2018-04-17T16:23:44.755Z,24.89
2018-04-17T16:27:07.629Z,25.67
2018-04-17T16:30:30.436Z,25.48
2018-04-17T16:33:54.318Z,25.36
2018-04-17T16:37:17.277Z,25.66
2018-04-17T16:40:40.191Z,25.42
2018-04-17T16:44:03.060Z,25.06
2018-04-17T16:47:25.937Z,24.74
2018-04-17T16:50:49.592Z,24.65
2018-04-17T16:54:13.305Z,24.67
2018-04-17T16:57:36.187Z,25.06
2018-04-17T17:00:59.074Z,25.06
2018-04-17T17:04:22.741Z,24.64
2018-04-17T17:07:45.628Z,24.76
2018-04-17T17:11:08.581Z,24.64
2018-04-17T17:14:32.185Z,24.37
2018-04-17T17:17:55.061Z,24.91
2018-04-17T17:21:18.692Z,24.27
2018-04-17T17:24:41.542Z,24.48
2018-04-17T17:28:04.593Z,24.42
2018-04-17T17:31:27.496Z,24.09
2018-04-17T17:34:50.335Z,23.51
2018-04-17T17:38:14.005Z,23.44
2018-04-17T17:41:37.655Z,22.98
2018-04-17T17:45:00.519Z,22.60
2018-04-17T17:48:23.502Z,22.34
2018-04-17T17:51:46.390Z,22.15
2018-04-17T17:55:13.899Z,21.98
2018-04-17T17:58:37.703Z,21.83
2018-04-17T18:02:00.652Z,21.56
2018-04-17T18:05:23.576Z,21.50
2018-04-17T18:08:46.505Z,21.52
2018-04-17T18:12:09.526Z,21.31
2018-04-17T18:15:32.421Z,21.26
2018-04-17T18:18:56.074Z,21.14
2018-04-17T18:22:19.759Z,21.08
2018-04-17T18:25:42.692Z,20.81
2018-04-17T18:29:05.561Z,20.73
2018-04-17T18:32:29.240Z,20.65
2018-04-17T18:35:53.040Z,20.50
2018-04-17T18:39:16.136Z,20.31
2018-04-17T18:42:39.527Z,20.13
2018-04-17T18:46:02.385Z,19.82
2018-04-17T18:49:26.403Z,19.72
2018-04-17T18:52:49.256Z,19.48
2018-04-17T18:56:12.171Z,19.21
2018-04-17T18:59:35.065Z,19.22
2018-04-17T19:02:58.757Z,18.95
2018-04-17T19:06:21.708Z,18.85
2018-04-17T19:09:45.364Z,18.87
2018-04-17T19:13:08.237Z,18.74
2018-04-17T19:16:31.082Z,18.43
2018-04-17T19:19:54.054Z,18.36
2018-04-17T19:23:16.951Z,18.27
2018-04-17T19:26:40.555Z,18.10
2018-04-17T19:30:03.460Z,18.05
2018-04-17T19:33:28.416Z,18.03
2018-04-17T19:36:51.355Z,18.04
2018-04-17T19:40:22.235Z,18.00
2018-04-17T19:43:49.048Z,17.76
2018-04-17T19:47:11.911Z,17.81
2018-04-17T19:50:34.756Z,17.80
2018-04-17T19:53:58.445Z,17.60
2018-04-17T19:57:21.545Z,17.72
2018-04-17T20:00:44.493Z,17.64
2018-04-17T20:04:09.179Z,17.85
2018-04-17T20:07:32.139Z,17.48
2018-04-17T20:10:55.068Z,17.25
2018-04-17T20:14:18.725Z,17.23
2018-04-17T20:17:42.388Z,17.18
2018-04-17T20:21:05.325Z,17.23
2018-04-17T20:24:28.378Z,17.21
2018-04-17T20:27:51.278Z,16.90
2018-04-17T20:31:14.941Z,17.08
2018-04-17T20:34:38.056Z,16.81
2018-04-17T20:38:02.429Z,16.97
2018-04-17T20:41:26.079Z,16.88
2018-04-17T20:44:49.791Z,16.58
2018-04-17T20:48:12.709Z,16.68
2018-04-17T20:51:35.670Z,16.86
2018-04-17T20:54:58.539Z,16.85
2018-04-17T20:58:21.485Z,16.65
2018-04-17T21:01:45.203Z,16.90
2018-04-17T21:05:08.852Z,16.55
2018-04-17T21:08:32.521Z,16.55
2018-04-17T21:11:55.409Z,16.51
2018-04-17T21:15:18.313Z,16.65
2018-04-17T21:18:41.188Z,16.43
2018-04-17T21:22:04.857Z,16.18
2018-04-17T21:25:27.898Z,16.42
2018-04-17T21:28:52.331Z,16.60
2018-04-17T21:32:16.202Z,16.69
2018-04-17T21:35:39.205Z,16.73
2018-04-17T21:39:03.609Z,16.43
2018-04-17T21:42:26.437Z,16.11
2018-04-17T21:45:50.042Z,15.98
2018-04-17T21:49:12.867Z,16.07
2018-04-17T21:52:35.708Z,16.08
2018-04-17T21:55:59.321Z,15.86
2018-04-17T21:59:22.166Z,15.93
2018-04-17T22:02:45.025Z,15.83
2018-04-17T22:06:07.955Z,15.91
2018-04-17T22:09:30.877Z,15.64
2018-04-17T22:12:53.986Z,15.86
2018-04-17T22:16:16.943Z,15.72
2018-04-17T22:19:41.318Z,15.77
2018-04-17T22:23:05.223Z,15.59
2018-04-17T22:26:28.125Z,15.61
2018-04-17T22:29:51.005Z,15.88
2018-04-17T22:33:13.938Z,15.74
2018-04-17T22:36:36.990Z,15.53
2018-04-17T22:39:59.900Z,15.37
2018-04-17T22:43:22.766Z,15.46
2018-04-17T22:46:45.655Z,15.45
2018-04-17T22:50:08.524Z,15.41
2018-04-17T22:53:31.383Z,15.21
2018-04-17T22:56:54.306Z,14.95
2018-04-17T23:00:17.157Z,15.16
2018-04-17T23:03:40.169Z,14.97
2018-04-17T23:07:03.821Z,14.95
2018-04-17T23:10:27.433Z,14.99
2018-04-17T23:13:50.348Z,15.13
2018-04-17T23:17:13.208Z,14.91
2018-04-17T23:20:36.065Z,14.61
2018-04-17T23:23:59.098Z,14.88
2018-04-17T23:27:21.903Z,14.63
2018-04-17T23:30:44.947Z,14.82
2018-04-17T23:34:07.827Z,14.59
2018-04-17T23:37:31.441Z,14.62
2018-04-17T23:40:54.313Z,14.51
2018-04-17T23:44:17.137Z,14.43
2018-04-17T23:47:39.991Z,14.25
2018-04-17T23:51:02.869Z,14.41
2018-04-17T23:54:26.473Z,14.13
2018-04-17T23:57:50.146Z,14.16
